createdAt,value
2023-03-03T00:00:10.311Z,1020.14
2023-03-03T00:01:10.281Z,1020.18
2023-03-03T00:02:10.249Z,1020.17
2023-03-03T00:03:10.226Z,1020.18
2023-03-03T00:04:10.212Z,1020.16
2023-03-03T00:05:10.163Z,1020.13
2023-03-03T00:06:10.087Z,1020.09
2023-03-03T00:07:10.045Z,1020.15
2023-03-03T00:08:10.002Z,1020.14
2023-03-03T00:09:10.020Z,1020.12
2023-03-03T00:10:09.919Z,1020.06
2023-03-03T00:11:09.881Z,1020.09
2023-03-03T00:12:09.840Z,1020.09
2023-03-03T00:13:09.804Z,1020.10
2023-03-03T00:14:09.760Z,1020.11
2023-03-03T00:15:09.777Z,1020.09
2023-03-03T00:16:09.743Z,1020.11
2023-03-03T00:17:09.657Z,1020.17
2023-03-03T00:18:09.603Z,1020.24
2023-03-03T00:19:09.564Z,1020.33
2023-03-03T00:20:09.523Z,1020.26
2023-03-03T00:21:09.551Z,1020.32
2023-03-03T00:22:09.448Z,1020.40
2023-03-03T00:23:09.429Z,1020.41
2023-03-03T00:24:09.373Z,1020.45
2023-03-03T00:25:09.335Z,1020.42
2023-03-03T00:26:09.283Z,1020.40
2023-03-03T00:27:09.316Z,1020.43
2023-03-03T00:28:09.213Z,1020.47
2023-03-03T00:29:09.180Z,1020.46
2023-03-03T00:30:09.150Z,1020.39
2023-03-03T00:31:09.146Z,1020.42
2023-03-03T00:32:09.090Z,1020.38
2023-03-03T00:33:09.071Z,1020.40
2023-03-03T00:34:09.022Z,1020.35
2023-03-03T00:35:08.938Z,1020.31
2023-03-03T00:36:08.895Z,1020.29
2023-03-03T00:37:08.858Z,1020.32
2023-03-03T00:38:08.888Z,1020.27
2023-03-03T00:39:08.771Z,1020.27
2023-03-03T00:40:08.764Z,1020.23
2023-03-03T00:41:08.711Z,1020.19
2023-03-03T00:42:08.652Z,1020.11
2023-03-03T00:43:08.622Z,1020.07
2023-03-03T00:44:08.662Z,1020.06
2023-03-03T00:45:08.537Z,1020.05
2023-03-03T00:46:08.502Z,1020.03
2023-03-03T00:47:08.462Z,1020.04
2023-03-03T00:48:08.414Z,1020.07
2023-03-03T00:49:08.434Z,1020.02
2023-03-03T00:50:08.342Z,1020.03
2023-03-03T00:51:08.310Z,1020.03
2023-03-03T00:52:08.269Z,1020.06
2023-03-03T00:53:08.290Z,1020.10
2023-03-03T00:54:08.186Z,1020.18
2023-03-03T00:55:08.223Z,1020.19
2023-03-03T00:56:08.102Z,1020.22
2023-03-03T00:57:08.067Z,1020.15
2023-03-03T00:58:08.075Z,1020.07
2023-03-03T00:59:07.989Z,1020.05
2023-03-03T01:00:07.954Z,1020.05
2023-03-03T01:01:07.941Z,1020.04
2023-03-03T01:02:07.877Z,1020.05
2023-03-03T01:03:07.832Z,1020.04
2023-03-03T01:04:07.846Z,1020.06
2023-03-03T01:05:07.802Z,1020.10
2023-03-03T01:06:07.715Z,1020.09
2023-03-03T01:07:07.672Z,1020.05
2023-03-03T01:08:07.647Z,1020.02
2023-03-03T01:09:07.596Z,1020.01
2023-03-03T01:10:07.616Z,1020.02
2023-03-03T01:11:07.521Z,1020.05
2023-03-03T01:12:07.472Z,1020.06
2023-03-03T01:13:07.431Z,1020.06
2023-03-03T01:14:07.417Z,1020.04
2023-03-03T01:15:07.359Z,1020.04
2023-03-03T01:16:07.438Z,1020.09
2023-03-03T01:17:07.279Z,1020.08
2023-03-03T01:18:07.246Z,1020.09
2023-03-03T01:19:07.202Z,1020.06
2023-03-03T01:20:07.155Z,1020.10
2023-03-03T01:21:07.124Z,1020.07
2023-03-03T01:22:07.137Z,1020.06
2023-03-03T01:23:07.063Z,1020.03
2023-03-03T01:24:07.001Z,1020.00
2023-03-03T01:25:06.973Z,1019.96
2023-03-03T01:26:06.974Z,1019.95
2023-03-03T01:27:06.884Z,1019.94
2023-03-03T01:28:06.911Z,1019.96
2023-03-03T01:29:06.809Z,1019.98
2023-03-03T01:30:06.805Z,1020.00
2023-03-03T01:31:06.796Z,1020.03
2023-03-03T01:32:06.759Z,1020.01
2023-03-03T01:33:06.652Z,1020.01
2023-03-03T01:34:06.672Z,1020.02
2023-03-03T01:35:06.575Z,1020.01
2023-03-03T01:36:06.531Z,1019.94
2023-03-03T01:37:06.501Z,1019.90
2023-03-03T01:38:06.454Z,1019.89
2023-03-03T01:39:06.409Z,1019.89
2023-03-03T01:40:06.441Z,1019.85
2023-03-03T01:41:06.334Z,1019.84
2023-03-03T01:42:06.302Z,1019.80
2023-03-03T01:43:06.338Z,1019.82
2023-03-03T01:44:06.229Z,1019.82
2023-03-03T01:45:06.180Z,1019.76
2023-03-03T01:46:06.223Z,1019.74
2023-03-03T01:47:06.098Z,1019.77
2023-03-03T01:48:06.060Z,1019.73
2023-03-03T01:49:06.087Z,1019.72
2023-03-03T01:50:05.987Z,1019.69
2023-03-03T01:51:05.938Z,1019.68
2023-03-03T01:52:06.042Z,1019.66
2023-03-03T01:53:05.867Z,1019.65
2023-03-03T01:54:05.887Z,1019.63
2023-03-03T01:55:05.790Z,1019.58
2023-03-03T01:56:05.773Z,1019.57
2023-03-03T01:57:05.711Z,1019.54
2023-03-03T01:58:05.672Z,1019.53
2023-03-03T01:59:05.705Z,1019.58
2023-03-03T02:00:05.649Z,1019.56
2023-03-03T02:01:05.556Z,1019.54
2023-03-03T02:02:05.565Z,1019.54
2023-03-03T02:03:05.491Z,1019.54
2023-03-03T02:04:05.433Z,1019.57
2023-03-03T02:05:05.480Z,1019.56
2023-03-03T02:06:05.356Z,1019.56
2023-03-03T02:07:05.322Z,1019.53
2023-03-03T02:08:05.285Z,1019.56
2023-03-03T02:09:05.243Z,1019.58
2023-03-03T02:10:05.207Z,1019.59
2023-03-03T02:11:05.231Z,1019.59
2023-03-03T02:12:05.137Z,1019.58
2023-03-03T02:13:05.123Z,1019.59
2023-03-03T02:14:05.080Z,1019.60
2023-03-03T02:15:05.012Z,1019.59
2023-03-03T02:16:04.989Z,1019.59
2023-03-03T02:17:04.983Z,1019.56
2023-03-03T02:18:04.900Z,1019.55
2023-03-03T02:19:04.854Z,1019.64
2023-03-03T02:20:04.810Z,1019.62
2023-03-03T02:21:04.787Z,1019.64
2023-03-03T02:22:04.755Z,1019.64
2023-03-03T02:23:04.792Z,1019.65
2023-03-03T02:24:04.679Z,1019.69
2023-03-03T02:25:04.639Z,1019.70
2023-03-03T02:26:04.593Z,1019.68
2023-03-03T02:27:04.542Z,1019.71
2023-03-03T02:28:04.537Z,1019.77
2023-03-03T02:29:04.533Z,1019.78
2023-03-03T02:30:04.423Z,1019.74
2023-03-03T02:31:04.392Z,1019.71
2023-03-03T02:32:04.367Z,1019.71
2023-03-03T02:33:04.380Z,1019.74
2023-03-03T02:34:04.276Z,1019.69
2023-03-03T02:35:04.307Z,1019.76
2023-03-03T02:36:04.222Z,1019.75
2023-03-03T02:37:04.183Z,1019.78
2023-03-03T02:38:04.111Z,1019.79
2023-03-03T02:39:04.067Z,1019.79
2023-03-03T02:40:04.123Z,1019.79
2023-03-03T02:41:04.047Z,1019.76
2023-03-03T02:42:03.964Z,1019.82
2023-03-03T02:43:03.922Z,1019.78
2023-03-03T02:44:03.895Z,1019.78
2023-03-03T02:45:03.844Z,1019.77
2023-03-03T02:46:03.903Z,1019.77
2023-03-03T02:47:03.764Z,1019.79
2023-03-03T02:48:03.711Z,1019.78
2023-03-03T02:49:03.678Z,1019.72
2023-03-03T02:50:03.637Z,1019.68
2023-03-03T02:51:03.597Z,1019.67
2023-03-03T02:52:03.630Z,1019.74
2023-03-03T02:53:03.527Z,1019.74
2023-03-03T02:54:03.496Z,1019.75
2023-03-03T02:55:03.436Z,1019.76
2023-03-03T02:56:03.408Z,1019.77
2023-03-03T02:57:03.361Z,1019.75
2023-03-03T02:58:03.388Z,1019.76
2023-03-03T02:59:03.380Z,1019.80
2023-03-03T03:00:03.242Z,1019.83
2023-03-03T03:01:03.234Z,1019.83
2023-03-03T03:02:03.162Z,1019.86
2023-03-03T03:03:03.261Z,1019.82
2023-03-03T03:04:03.112Z,1019.76
2023-03-03T03:05:03.050Z,1019.75
2023-03-03T03:06:03.004Z,1019.75
2023-03-03T03:07:02.982Z,1019.73
2023-03-03T03:08:03.693Z,1019.69
2023-03-03T03:09:02.884Z,1019.66
2023-03-03T03:10:02.848Z,1019.68
2023-03-03T03:11:02.812Z,1019.65
2023-03-03T03:12:02.780Z,1019.72
2023-03-03T03:13:02.730Z,1019.73
2023-03-03T03:14:02.768Z,1019.74
2023-03-03T03:15:02.657Z,1019.76
2023-03-03T03:16:02.611Z,1019.77
2023-03-03T03:17:02.605Z,1019.80
2023-03-03T03:18:02.542Z,1019.84
2023-03-03T03:19:02.491Z,1019.83
2023-03-03T03:20:02.524Z,1019.81
2023-03-03T03:21:02.430Z,1019.86
2023-03-03T03:22:02.383Z,1019.87
2023-03-03T03:23:02.345Z,1019.88
2023-03-03T03:24:02.428Z,1019.84
2023-03-03T03:25:02.296Z,1019.85
2023-03-03T03:26:02.278Z,1019.85
2023-03-03T03:27:02.190Z,1019.82
2023-03-03T03:28:02.152Z,1019.90
2023-03-03T03:29:02.223Z,1019.89
2023-03-03T03:30:02.069Z,1019.91
2023-03-03T03:31:02.076Z,1019.95
2023-03-03T03:32:02.026Z,1020.03
2023-03-03T03:33:01.957Z,1020.00
2023-03-03T03:34:01.917Z,1019.99
2023-03-03T03:35:01.930Z,1019.98
2023-03-03T03:36:01.836Z,1020.00
2023-03-03T03:37:01.807Z,1020.05
2023-03-03T03:38:01.776Z,1020.03
2023-03-03T03:39:01.717Z,1020.07
2023-03-03T03:40:01.773Z,1019.98
2023-03-03T03:41:01.647Z,1019.98
2023-03-03T03:42:01.604Z,1019.99
2023-03-03T03:43:01.561Z,1019.97
2023-03-03T03:44:01.516Z,1019.93
2023-03-03T03:45:01.477Z,1019.94
2023-03-03T03:46:01.568Z,1019.99
2023-03-03T03:47:01.401Z,1020.02
2023-03-03T03:48:01.365Z,1020.01
2023-03-03T03:49:01.322Z,1020.08
2023-03-03T03:50:01.283Z,1020.12
2023-03-03T03:51:01.244Z,1020.07
2023-03-03T03:52:01.287Z,1020.09
2023-03-03T03:53:01.209Z,1020.10
2023-03-03T03:54:01.144Z,1020.07
2023-03-03T03:55:01.114Z,1020.03
2023-03-03T03:56:01.062Z,1020.03
2023-03-03T03:57:01.009Z,1019.95
2023-03-03T03:58:01.052Z,1019.95
2023-03-03T03:59:00.935Z,1019.97
2023-03-03T04:00:00.993Z,1019.91
2023-03-03T04:01:00.860Z,1019.92
2023-03-03T04:02:00.848Z,1019.90
2023-03-03T04:03:00.878Z,1019.84
2023-03-03T04:04:00.823Z,1019.81
2023-03-03T04:05:00.711Z,1019.85
2023-03-03T04:06:00.666Z,1019.87
2023-03-03T04:07:00.633Z,1019.85
2023-03-03T04:08:00.697Z,1019.83
2023-03-03T04:09:00.576Z,1019.85
2023-03-03T04:10:00.574Z,1019.83
2023-03-03T04:11:00.486Z,1019.85
2023-03-03T04:12:00.469Z,1019.80
2023-03-03T04:13:00.432Z,1019.77
2023-03-03T04:14:00.355Z,1019.78
2023-03-03T04:15:00.329Z,1019.82
2023-03-03T04:16:00.376Z,1019.83
2023-03-03T04:17:00.335Z,1019.80
2023-03-03T04:18:00.201Z,1019.79
2023-03-03T04:19:00.169Z,1019.75
2023-03-03T04:20:00.145Z,1019.73
2023-03-03T04:21:00.127Z,1019.74
2023-03-03T04:22:00.129Z,1019.71
2023-03-03T04:23:00.014Z,1019.77
2023-03-03T04:23:59.979Z,1019.79
2023-03-03T04:24:59.942Z,1019.79
2023-03-03T04:25:59.890Z,1019.78
2023-03-03T04:26:59.857Z,1019.82
2023-03-03T04:27:59.881Z,1019.75
2023-03-03T04:28:59.791Z,1019.78
2023-03-03T04:29:59.738Z,1019.77
2023-03-03T04:30:59.757Z,1019.78
2023-03-03T04:32:00.622Z,1019.84
2023-03-03T04:32:59.630Z,1019.79
2023-03-03T04:33:59.638Z,1019.78
2023-03-03T04:35:07.592Z,1019.78
2023-03-03T04:35:59.496Z,1019.77
2023-03-03T04:36:59.470Z,1019.75
2023-03-03T04:37:59.435Z,1019.73
2023-03-03T04:38:59.390Z,1019.73
2023-03-03T04:39:59.404Z,1019.74
2023-03-03T04:40:59.314Z,1019.70
2023-03-03T04:41:59.275Z,1019.65
2023-03-03T04:42:59.228Z,1019.63
2023-03-03T04:43:59.219Z,1019.66
2023-03-03T04:44:59.233Z,1019.65
2023-03-03T04:45:59.143Z,1019.63
2023-03-03T04:46:59.084Z,1019.61
2023-03-03T04:47:59.046Z,1019.59
2023-03-03T04:48:59.003Z,1019.59
2023-03-03T04:49:59.024Z,1019.59
2023-03-03T04:50:58.921Z,1019.62
2023-03-03T04:51:58.885Z,1019.63
2023-03-03T04:52:58.841Z,1019.69
2023-03-03T04:53:58.804Z,1019.73
2023-03-03T04:54:58.842Z,1019.69
2023-03-03T04:55:58.736Z,1019.75
2023-03-03T04:56:58.697Z,1019.65
2023-03-03T04:57:58.647Z,1019.69
2023-03-03T04:58:58.608Z,1019.71
2023-03-03T04:59:58.574Z,1019.73
2023-03-03T05:00:58.600Z,1019.80
2023-03-03T05:01:58.569Z,1019.77
2023-03-03T05:02:58.457Z,1019.82
2023-03-03T05:03:58.419Z,1019.83
2023-03-03T05:04:58.437Z,1019.80
2023-03-03T05:05:58.390Z,1019.81
2023-03-03T05:06:58.304Z,1019.80
2023-03-03T05:07:58.260Z,1019.77
2023-03-03T05:08:58.224Z,1019.70
2023-03-03T05:09:58.184Z,1019.72
2023-03-03T05:10:58.132Z,1019.71
2023-03-03T05:11:58.159Z,1019.74
2023-03-03T05:12:58.065Z,1019.78
2023-03-03T05:13:58.015Z,1019.71
2023-03-03T05:14:58.596Z,1019.65
2023-03-03T05:15:57.989Z,1019.64
2023-03-03T05:16:57.971Z,1019.61
2023-03-03T05:17:57.871Z,1019.62
2023-03-03T05:18:57.822Z,1019.63
2023-03-03T05:19:57.811Z,1019.60
2023-03-03T05:20:57.753Z,1019.62
2023-03-03T05:21:57.738Z,1019.58
2023-03-03T05:22:57.731Z,1019.56
2023-03-03T05:23:58.219Z,1019.61
2023-03-03T05:24:57.626Z,1019.61
2023-03-03T05:26:00.594Z,1019.62
2023-03-03T05:26:58.215Z,1019.61
2023-03-03T05:27:57.493Z,1019.63
2023-03-03T05:28:57.821Z,1019.64
2023-03-03T05:29:57.403Z,1019.61
2023-03-03T05:30:57.410Z,1019.63
2023-03-03T05:31:57.345Z,1019.59
2023-03-03T05:32:57.281Z,1019.58
2023-03-03T05:33:57.251Z,1019.55
2023-03-03T05:34:57.262Z,1019.57
2023-03-03T05:35:57.194Z,1019.56
2023-03-03T05:36:57.123Z,1019.58
2023-03-03T05:37:57.086Z,1019.57
2023-03-03T05:38:57.048Z,1019.59
2023-03-03T05:39:57.295Z,1019.55
2023-03-03T05:40:57.027Z,1019.58
2023-03-03T05:41:56.947Z,1019.60
2023-03-03T05:42:56.923Z,1019.54
2023-03-03T05:43:56.851Z,1019.55
2023-03-03T05:44:56.866Z,1019.52
2023-03-03T05:45:56.776Z,1019.57
2023-03-03T05:46:56.810Z,1019.60
2023-03-03T05:47:56.700Z,1019.63
2023-03-03T05:48:56.656Z,1019.67
2023-03-03T05:49:56.668Z,1019.63
2023-03-03T05:50:56.580Z,1019.68
2023-03-03T05:51:56.563Z,1019.69
2023-03-03T05:52:56.499Z,1019.72
2023-03-03T05:53:56.661Z,1019.71
2023-03-03T05:54:56.426Z,1019.70
2023-03-03T05:55:56.505Z,1019.75
2023-03-03T05:56:56.347Z,1019.77
2023-03-03T05:57:56.310Z,1019.78
2023-03-03T05:58:56.280Z,1019.78
2023-03-03T05:59:56.232Z,1019.80
2023-03-03T06:00:56.215Z,1019.81
2023-03-03T06:01:56.243Z,1019.84
2023-03-03T06:02:56.146Z,1019.84
2023-03-03T06:03:56.088Z,1019.83
2023-03-03T06:04:56.043Z,1019.80
2023-03-03T06:05:56.057Z,1019.87
2023-03-03T06:06:55.956Z,1019.84
2023-03-03T06:07:55.925Z,1019.88
2023-03-03T06:08:57.264Z,1019.87
2023-03-03T06:09:55.847Z,1019.88
2023-03-03T06:10:55.797Z,1019.89
2023-03-03T06:11:55.828Z,1019.89
2023-03-03T06:12:55.731Z,1019.92
2023-03-03T06:13:55.686Z,1019.90
2023-03-03T06:14:55.672Z,1019.93
2023-03-03T06:15:55.656Z,1019.88
2023-03-03T06:16:55.621Z,1019.87
2023-03-03T06:17:55.541Z,1019.87
2023-03-03T06:18:55.496Z,1019.89
2023-03-03T06:19:55.460Z,1019.92
2023-03-03T06:20:55.424Z,1019.90
2023-03-03T06:21:55.375Z,1019.92
2023-03-03T06:22:55.394Z,1019.97
2023-03-03T06:23:55.306Z,1019.95
2023-03-03T06:24:55.257Z,1019.96
2023-03-03T06:25:55.238Z,1020.00
2023-03-03T06:26:55.181Z,1019.99
2023-03-03T06:27:55.155Z,1019.99
2023-03-03T06:28:55.189Z,1020.02
2023-03-03T06:29:55.066Z,1019.99
2023-03-03T06:30:55.043Z,1020.07
2023-03-03T06:31:55.159Z,1020.12
2023-03-03T06:32:54.958Z,1020.09
2023-03-03T06:33:54.917Z,1020.08
2023-03-03T06:34:54.934Z,1020.15
2023-03-03T06:35:54.931Z,1020.14
2023-03-03T06:36:54.794Z,1020.17
2023-03-03T06:37:54.762Z,1020.19
2023-03-03T06:38:54.719Z,1020.15
2023-03-03T06:39:54.682Z,1020.15
2023-03-03T06:40:54.710Z,1020.22
2023-03-03T06:41:54.644Z,1020.21
2023-03-03T06:42:54.585Z,1020.16
2023-03-03T06:43:54.594Z,1020.18
2023-03-03T06:44:54.489Z,1020.19
2023-03-03T06:45:54.457Z,1020.23
2023-03-03T06:46:54.456Z,1020.20
2023-03-03T06:47:54.376Z,1020.19
2023-03-03T06:48:54.335Z,1020.20
2023-03-03T06:49:54.317Z,1020.17
2023-03-03T06:50:54.250Z,1020.17
2023-03-03T06:51:54.213Z,1020.17
2023-03-03T06:52:54.224Z,1020.14
2023-03-03T06:53:54.146Z,1020.16
2023-03-03T06:54:54.104Z,1020.22
2023-03-03T06:55:54.063Z,1020.18
2023-03-03T06:56:54.019Z,1020.19
2023-03-03T06:57:53.991Z,1020.22
2023-03-03T06:58:53.995Z,1020.22
2023-03-03T06:59:53.907Z,1020.29
2023-03-03T07:00:53.951Z,1020.29
2023-03-03T07:01:53.831Z,1020.29
2023-03-03T07:02:53.787Z,1020.31
2023-03-03T07:03:53.831Z,1020.27
2023-03-03T07:04:53.718Z,1020.26
2023-03-03T07:05:53.676Z,1020.31
2023-03-03T07:06:53.639Z,1020.35
2023-03-03T07:07:53.600Z,1020.35
2023-03-03T07:08:53.571Z,1020.37
2023-03-03T07:09:53.574Z,1020.42
2023-03-03T07:10:53.502Z,1020.42
2023-03-03T07:11:53.442Z,1020.43
2023-03-03T07:12:53.408Z,1020.45
2023-03-03T07:13:53.390Z,1020.47
2023-03-03T07:14:53.390Z,1020.50
2023-03-03T07:15:53.303Z,1020.50
2023-03-03T07:16:53.285Z,1020.51
2023-03-03T07:17:53.211Z,1020.51
2023-03-03T07:18:53.192Z,1020.56
2023-03-03T07:19:53.139Z,1020.56
2023-03-03T07:20:53.305Z,1020.57
2023-03-03T07:21:53.060Z,1020.55
2023-03-03T07:22:53.018Z,1020.55
2023-03-03T07:23:52.991Z,1020.57
2023-03-03T07:24:53.265Z,1020.58
2023-03-03T07:25:52.908Z,1020.61
2023-03-03T07:26:52.928Z,1020.61
2023-03-03T07:27:52.838Z,1020.58
2023-03-03T07:28:52.820Z,1020.62
2023-03-03T07:29:52.759Z,1020.65
2023-03-03T07:30:52.738Z,1020.65
2023-03-03T07:31:52.729Z,1020.64
2023-03-03T07:32:52.697Z,1020.62
2023-03-03T07:33:52.605Z,1020.63
2023-03-03T07:34:52.576Z,1020.61
2023-03-03T07:35:52.618Z,1020.62
2023-03-03T07:36:52.500Z,1020.61
2023-03-03T07:37:52.447Z,1020.59
2023-03-03T07:38:52.472Z,1020.57
2023-03-03T07:39:52.363Z,1020.56
2023-03-03T07:40:52.349Z,1020.60
2023-03-03T07:41:52.304Z,1020.58
2023-03-03T07:42:52.259Z,1020.55
2023-03-03T07:43:52.220Z,1020.56
2023-03-03T07:44:52.234Z,1020.59
2023-03-03T07:45:52.155Z,1020.58
2023-03-03T07:46:52.114Z,1020.61
2023-03-03T07:47:52.065Z,1020.61
2023-03-03T07:48:52.029Z,1020.61
2023-03-03T07:49:51.991Z,1020.68
2023-03-03T07:50:52.009Z,1020.71
2023-03-03T07:51:51.919Z,1020.71
2023-03-03T07:52:51.884Z,1020.71
2023-03-03T07:53:51.842Z,1020.73
2023-03-03T07:54:51.801Z,1020.71
2023-03-03T07:55:51.771Z,1020.72
2023-03-03T07:56:51.776Z,1020.74
2023-03-03T07:57:51.692Z,1020.77
2023-03-03T07:58:51.647Z,1020.76
2023-03-03T07:59:51.602Z,1020.75
2023-03-03T08:00:51.638Z,1020.78
2023-03-03T08:01:51.567Z,1020.80
2023-03-03T08:02:51.550Z,1020.74
2023-03-03T08:03:51.474Z,1020.75
2023-03-03T08:04:51.524Z,1020.76
2023-03-03T08:05:51.376Z,1020.77
2023-03-03T08:06:51.342Z,1020.77
2023-03-03T08:07:51.305Z,1020.73
2023-03-03T08:08:51.314Z,1020.79
2023-03-03T08:09:51.305Z,1020.76
2023-03-03T08:10:51.231Z,1020.82
2023-03-03T08:11:51.153Z,1020.84
2023-03-03T08:12:51.108Z,1020.82
2023-03-03T08:13:51.069Z,1020.76
2023-03-03T08:14:51.081Z,1020.78
2023-03-03T08:15:51.049Z,1020.79
2023-03-03T08:16:50.942Z,1020.77
2023-03-03T08:17:50.957Z,1020.77
2023-03-03T08:18:50.871Z,1020.77
2023-03-03T08:19:50.825Z,1020.78
2023-03-03T08:20:50.846Z,1020.84
2023-03-03T08:21:50.753Z,1020.85
2023-03-03T08:22:50.712Z,1020.92
2023-03-03T08:23:50.679Z,1020.92
2023-03-03T08:24:50.655Z,1020.93
2023-03-03T08:25:50.618Z,1020.91
2023-03-03T08:26:50.616Z,1020.86
2023-03-03T08:27:50.518Z,1020.78
2023-03-03T08:28:50.498Z,1020.70
2023-03-03T08:29:50.450Z,1020.72
2023-03-03T08:30:50.431Z,1020.75
2023-03-03T08:31:50.397Z,1020.78
2023-03-03T08:32:50.412Z,1020.78
2023-03-03T08:33:50.302Z,1020.75
2023-03-03T08:34:50.254Z,1020.72
2023-03-03T08:35:50.288Z,1020.76
2023-03-03T08:36:50.188Z,1020.73
2023-03-03T08:37:50.133Z,1020.76
2023-03-03T08:38:50.147Z,1020.71
2023-03-03T08:39:50.075Z,1020.71
2023-03-03T08:40:50.018Z,1020.67
2023-03-03T08:41:49.984Z,1020.75
2023-03-03T08:42:49.943Z,1020.69
2023-03-03T08:43:49.908Z,1020.74
2023-03-03T08:44:49.935Z,1020.74
2023-03-03T08:45:49.832Z,1020.67
2023-03-03T08:46:49.816Z,1020.68
2023-03-03T08:47:49.759Z,1020.69
2023-03-03T08:48:49.767Z,1020.72
2023-03-03T08:49:49.694Z,1020.70
2023-03-03T08:50:49.718Z,1020.70
2023-03-03T08:51:49.605Z,1020.70
2023-03-03T08:52:49.587Z,1020.70
2023-03-03T08:53:49.529Z,1020.72
2023-03-03T08:54:50.240Z,1020.75
2023-03-03T08:55:49.577Z,1020.80
2023-03-03T08:56:49.489Z,1020.76
2023-03-03T08:57:49.385Z,1020.78
2023-03-03T08:59:01.673Z,1020.74
2023-03-03T08:59:57.267Z,1020.78
2023-03-03T09:00:51.203Z,1020.79
2023-03-03T09:01:49.351Z,1020.87
2023-03-03T09:02:49.218Z,1020.80
2023-03-03T09:03:49.223Z,1020.77
2023-03-03T09:04:49.241Z,1020.80
2023-03-03T09:05:49.094Z,1020.78
2023-03-03T09:06:49.155Z,1020.85
2023-03-03T09:07:49.075Z,1020.81
2023-03-03T09:08:48.972Z,1020.78
2023-03-03T09:09:49.167Z,1020.78
2023-03-03T09:10:48.913Z,1020.75
2023-03-03T09:11:48.910Z,1020.74
2023-03-03T09:12:48.859Z,1020.72
2023-03-03T09:13:48.847Z,1020.70
2023-03-03T09:14:48.757Z,1020.69
2023-03-03T09:15:48.818Z,1020.80
2023-03-03T09:16:48.674Z,1020.75
2023-03-03T09:17:48.925Z,1020.77
2023-03-03T09:18:48.609Z,1020.75
2023-03-03T09:19:48.628Z,1020.75
2023-03-03T09:20:48.579Z,1020.76
2023-03-03T09:21:48.489Z,1020.72
2023-03-03T09:22:48.460Z,1020.70
2023-03-03T09:23:48.421Z,1020.72
2023-03-03T09:24:48.385Z,1020.74
2023-03-03T09:25:48.414Z,1020.74
2023-03-03T09:26:48.373Z,1020.75
2023-03-03T09:27:48.308Z,1020.74
2023-03-03T09:28:48.233Z,1020.76
2023-03-03T09:29:48.196Z,1020.75
2023-03-03T09:30:48.308Z,1020.69
2023-03-03T09:31:48.237Z,1020.74
2023-03-03T09:32:48.193Z,1020.75
2023-03-03T09:33:48.088Z,1020.71
2023-03-03T09:34:48.019Z,1020.75
2023-03-03T09:35:48.049Z,1020.74
2023-03-03T09:36:48.652Z,1020.75
2023-03-03T09:37:47.910Z,1020.79
2023-03-03T09:38:48.037Z,1020.76
2023-03-03T09:39:47.844Z,1020.77
2023-03-03T09:40:47.797Z,1020.76
2023-03-03T09:41:47.828Z,1020.72
2023-03-03T09:42:47.715Z,1020.70
2023-03-03T09:43:47.685Z,1020.71
2023-03-03T09:44:47.647Z,1020.73
2023-03-03T09:45:47.650Z,1020.73
2023-03-03T09:46:47.601Z,1020.75
2023-03-03T09:47:47.599Z,1020.74
2023-03-03T09:48:47.500Z,1020.75
2023-03-03T09:49:47.470Z,1020.68
2023-03-03T09:50:47.433Z,1020.72
2023-03-03T09:51:47.398Z,1020.73
2023-03-03T09:52:47.441Z,1020.71
2023-03-03T09:53:47.324Z,1020.74
2023-03-03T09:54:47.291Z,1020.77
2023-03-03T09:55:47.251Z,1020.78
2023-03-03T09:56:47.255Z,1020.80
2023-03-03T09:57:47.183Z,1020.79
2023-03-03T09:58:47.235Z,1020.74
2023-03-03T09:59:47.136Z,1020.78
2023-03-03T10:00:47.067Z,1020.82
2023-03-03T10:01:47.050Z,1020.83
2023-03-03T10:02:47.935Z,1020.82
2023-03-03T10:03:47.045Z,1020.81
2023-03-03T10:04:46.984Z,1020.78
2023-03-03T10:05:46.905Z,1020.75
2023-03-03T10:06:46.870Z,1020.76
2023-03-03T10:07:46.829Z,1020.78
2023-03-03T10:08:47.300Z,1020.77
2023-03-03T10:09:46.812Z,1020.75
2023-03-03T10:10:46.775Z,1020.78
2023-03-03T10:11:46.710Z,1020.80
2023-03-03T10:12:46.659Z,1020.75
2023-03-03T10:13:46.604Z,1020.77
2023-03-03T10:14:47.342Z,1020.73
2023-03-03T10:15:46.622Z,1020.74
2023-03-03T10:16:47.668Z,1020.74
2023-03-03T10:17:46.579Z,1020.78
2023-03-03T10:18:46.695Z,1020.77
2023-03-03T10:19:46.406Z,1020.78
2023-03-03T10:20:52.426Z,1020.83
2023-03-03T10:21:46.848Z,1020.81
2023-03-03T10:22:46.316Z,1020.79
2023-03-03T10:23:46.559Z,1020.77
2023-03-03T10:24:46.576Z,1020.79
2023-03-03T10:25:46.366Z,1020.83
2023-03-03T10:26:54.644Z,1020.77
2023-03-03T10:27:46.195Z,1020.77
2023-03-03T10:28:46.255Z,1020.73
2023-03-03T10:29:46.106Z,1020.75
2023-03-03T10:31:02.063Z,1020.76
2023-03-03T10:31:46.086Z,1020.74
2023-03-03T10:32:46.095Z,1020.75
2023-03-03T10:33:46.102Z,1020.75
2023-03-03T10:34:45.886Z,1020.69
2023-03-03T10:36:00.929Z,1020.62
2023-03-03T10:36:45.872Z,1020.67
2023-03-03T10:37:45.788Z,1020.63
2023-03-03T10:38:45.793Z,1020.71
2023-03-03T10:39:45.687Z,1020.63
2023-03-03T10:40:45.656Z,1020.63
2023-03-03T10:41:45.633Z,1020.67
2023-03-03T10:42:45.656Z,1020.66
2023-03-03T10:43:45.760Z,1020.68
2023-03-03T10:44:45.520Z,1020.71
2023-03-03T10:45:45.590Z,1020.68
2023-03-03T10:46:45.452Z,1020.69
2023-03-03T10:47:45.476Z,1020.71
2023-03-03T10:48:45.368Z,1020.72
2023-03-03T10:49:45.359Z,1020.73
2023-03-03T10:50:45.288Z,1020.72
2023-03-03T10:51:45.283Z,1020.72
2023-03-03T10:52:45.793Z,1020.73
2023-03-03T10:53:45.198Z,1020.74
2023-03-03T10:54:45.188Z,1020.77
2023-03-03T10:55:45.118Z,1020.82
2023-03-03T10:56:52.933Z,1020.73
2023-03-03T10:57:45.097Z,1020.72
2023-03-03T10:58:45.040Z,1020.73
2023-03-03T10:59:44.967Z,1020.70
2023-03-03T11:00:45.825Z,1020.69
2023-03-03T11:01:44.915Z,1020.72
2023-03-03T11:02:44.898Z,1020.69
2023-03-03T11:03:45.394Z,1020.71
2023-03-03T11:04:44.927Z,1020.72
2023-03-03T11:05:44.769Z,1020.68
2023-03-03T11:06:44.725Z,1020.67
2023-03-03T11:07:44.694Z,1020.67
2023-03-03T11:08:44.680Z,1020.66
2023-03-03T11:09:44.767Z,1020.62
2023-03-03T11:10:46.170Z,1020.65
2023-03-03T11:11:44.580Z,1020.64
2023-03-03T11:12:44.507Z,1020.67
2023-03-03T11:13:45.034Z,1020.65
2023-03-03T11:14:44.436Z,1020.65
2023-03-03T11:15:44.550Z,1020.67
2023-03-03T11:16:44.414Z,1020.68
2023-03-03T11:17:44.356Z,1020.71
2023-03-03T11:18:44.349Z,1020.72
2023-03-03T11:19:45.327Z,1020.72
2023-03-03T11:20:45.170Z,1020.73
2023-03-03T11:21:44.262Z,1020.68
2023-03-03T11:22:44.152Z,1020.68
2023-03-03T11:23:44.193Z,1020.64
2023-03-03T11:24:45.672Z,1020.64
2023-03-03T11:25:44.097Z,1020.68
2023-03-03T11:26:44.119Z,1020.69
2023-03-03T11:27:43.982Z,1020.74
2023-03-03T11:28:44.064Z,1020.68
2023-03-03T11:29:43.945Z,1020.73
2023-03-03T11:30:43.942Z,1020.72
2023-03-03T11:31:43.843Z,1020.62
2023-03-03T11:32:43.791Z,1020.64
2023-03-03T11:33:43.764Z,1020.63
2023-03-03T11:34:43.769Z,1020.63
2023-03-03T11:35:43.765Z,1020.64
2023-03-03T11:36:43.738Z,1020.67
2023-03-03T11:37:43.697Z,1020.70
2023-03-03T11:38:43.605Z,1020.65
2023-03-03T11:39:43.567Z,1020.66
2023-03-03T11:40:43.514Z,1020.67
2023-03-03T11:41:43.589Z,1020.58
2023-03-03T11:42:43.458Z,1020.67
2023-03-03T11:43:43.415Z,1020.65
2023-03-03T11:44:43.464Z,1020.68
2023-03-03T11:45:43.394Z,1020.63
2023-03-03T11:46:43.480Z,1020.61
2023-03-03T11:47:43.272Z,1020.58
2023-03-03T11:48:43.235Z,1020.58
2023-03-03T11:49:43.206Z,1020.58
2023-03-03T11:50:43.163Z,1020.60
2023-03-03T11:51:43.146Z,1020.55
2023-03-03T11:52:43.150Z,1020.55
2023-03-03T11:53:43.056Z,1020.51
2023-03-03T11:54:43.027Z,1020.54
2023-03-03T11:55:42.988Z,1020.52
2023-03-03T11:56:42.948Z,1020.55
2023-03-03T11:57:42.968Z,1020.54
2023-03-03T11:58:42.875Z,1020.50
2023-03-03T11:59:42.840Z,1020.55
2023-03-03T12:00:42.851Z,1020.53
2023-03-03T12:01:42.774Z,1020.57
2023-03-03T12:02:42.803Z,1020.57
2023-03-03T12:03:42.706Z,1020.54
2023-03-03T12:04:42.663Z,1020.49